Terminal Aerodrome Forecast
Issued by NWS Louisville, KY

Home | Current Version | Previous Version | Text Only | Print | Product List | Glossary On
Versions: 1 2 3 4 5 6 7 8 9 10 11 12 13 14 15 16 17
658
FTUS43 KLMK 141121
TAFBWG
TAF
KBWG 141121Z 1412/1512 11008KT P6SM -SN BKN040
     FM141800 14007KT 2SM -SN BKN009
      TEMPO 1419/1423 3/4SM -SN BKN005
     FM150200 18010KT 3SM -SN BKN007
     FM150800 18007KT 4SM -SHRA BR BKN007=

USA.gov is the U.S. government's official web portal to all federal, state and local government web resources and services.